sensor_id;sensor_type;location;lat;lon;timestamp;pressure;altitude;pressure_sealevel;temperature
20867;BMP280;10593;48.398;10.698;2022-12-18T00:01:15;97239.75;;;2.47
20867;BMP280;10593;48.398;10.698;2022-12-18T00:03:41;97243.09;;;2.46
20867;BMP280;10593;48.398;10.698;2022-12-18T00:06:06;97248.22;;;2.47
20867;BMP280;10593;48.398;10.698;2022-12-18T00:08:32;97244.88;;;2.48
20867;BMP280;10593;48.398;10.698;2022-12-18T00:11:06;97235.63;;;2.50
20867;BMP280;10593;48.398;10.698;2022-12-18T00:13:32;97244.13;;;2.51
20867;BMP280;10593;48.398;10.698;2022-12-18T00:16:07;97250.09;;;2.53
20867;BMP280;10593;48.398;10.698;2022-12-18T00:18:34;97252.66;;;2.54
20867;BMP280;10593;48.398;10.698;2022-12-18T00:21:02;97259.47;;;2.55
20867;BMP280;10593;48.398;10.698;2022-12-18T00:23:29;97266.28;;;2.58
20867;BMP280;10593;48.398;10.698;2022-12-18T00:25:59;97262.09;;;2.58
20867;BMP280;10593;48.398;10.698;2022-12-18T00:28:25;97275.63;;;2.59
20867;BMP280;10593;48.398;10.698;2022-12-18T00:30:59;97274.84;;;2.61
20867;BMP280;10593;48.398;10.698;2022-12-18T00:33:25;97266.44;;;2.62
20867;BMP280;10593;48.398;10.698;2022-12-18T00:35:50;97268.16;;;2.63
20867;BMP280;10593;48.398;10.698;2022-12-18T00:38:16;97267.31;;;2.64
20867;BMP280;10593;48.398;10.698;2022-12-18T00:40:42;97270.75;;;2.65
20867;BMP280;10593;48.398;10.698;2022-12-18T00:43:08;97268.22;;;2.66
20867;BMP280;10593;48.398;10.698;2022-12-18T00:45:34;97273.31;;;2.66
20867;BMP280;10593;48.398;10.698;2022-12-18T00:48:00;97274.19;;;2.67
20867;BMP280;10593;48.398;10.698;2022-12-18T00:50:26;97282.63;;;2.67
20867;BMP280;10593;48.398;10.698;2022-12-18T00:52:51;97280.97;;;2.68
20867;BMP280;10593;48.398;10.698;2022-12-18T00:55:18;97275.00;;;2.67
20867;BMP280;10593;48.398;10.698;2022-12-18T00:57:43;97273.31;;;2.66
20867;BMP280;10593;48.398;10.698;2022-12-18T01:00:14;97267.31;;;2.63
20867;BMP280;10593;48.398;10.698;2022-12-18T01:02:41;97275.69;;;2.62
20867;BMP280;10593;48.398;10.698;2022-12-18T01:05:09;97290.06;;;2.61
20867;BMP280;10593;48.398;10.698;2022-12-18T01:07:35;97286.63;;;2.59
20867;BMP280;10593;48.398;10.698;2022-12-18T01:10:01;97290.84;;;2.59
20867;BMP280;10593;48.398;10.698;2022-12-18T01:12:26;97287.47;;;2.58
20867;BMP280;10593;48.398;10.698;2022-12-18T01:14:52;97282.31;;;2.57
20867;BMP280;10593;48.398;10.698;2022-12-18T01:17:18;97284.91;;;2.58
20867;BMP280;10593;48.398;10.698;2022-12-18T01:19:43;97289.13;;;2.58
20867;BMP280;10593;48.398;10.698;2022-12-18T01:22:09;97283.28;;;2.60
20867;BMP280;10593;48.398;10.698;2022-12-18T01:24:35;97292.63;;;2.61
20867;BMP280;10593;48.398;10.698;2022-12-18T01:27:00;97289.31;;;2.64
20867;BMP280;10593;48.398;10.698;2022-12-18T01:29:26;97296.09;;;2.65
20867;BMP280;10593;48.398;10.698;2022-12-18T01:31:55;97296.13;;;2.66
20867;BMP280;10593;48.398;10.698;2022-12-18T01:34:22;97291.13;;;2.68
20867;BMP280;10593;48.398;10.698;2022-12-18T01:36:48;97310.53;;;2.67
20867;BMP280;10593;48.398;10.698;2022-12-18T01:39:14;97311.34;;;2.66
20867;BMP280;10593;48.398;10.698;2022-12-18T01:41:42;97298.66;;;2.65
20867;BMP280;10593;48.398;10.698;2022-12-18T01:50:17;97308.69;;;2.62
20867;BMP280;10593;48.398;10.698;2022-12-18T01:52:58;97296.94;;;2.64
20867;BMP280;10593;48.398;10.698;2022-12-18T01:55:29;97303.66;;;2.63
20867;BMP280;10593;48.398;10.698;2022-12-18T01:57:59;97302.91;;;2.66
20867;BMP280;10593;48.398;10.698;2022-12-18T02:00:26;97302.03;;;2.65
20867;BMP280;10593;48.398;10.698;2022-12-18T02:02:53;97301.22;;;2.66
20867;BMP280;10593;48.398;10.698;2022-12-18T02:05:47;97307.16;;;2.67
20867;BMP280;10593;48.398;10.698;2022-12-18T02:08:33;97302.03;;;2.65
20867;BMP280;10593;48.398;10.698;2022-12-18T02:11:06;97298.66;;;2.65
20867;BMP280;10593;48.398;10.698;2022-12-18T02:16:59;97296.13;;;2.66
20867;BMP280;10593;48.398;10.698;2022-12-18T02:22:37;97297.75;;;2.64
20867;BMP280;10593;48.398;10.698;2022-12-18T02:25:43;97302.03;;;2.65
20867;BMP280;10593;48.398;10.698;2022-12-18T02:28:15;97305.44;;;2.66
20867;BMP280;10593;48.398;10.698;2022-12-18T02:30:44;97311.34;;;2.66
20867;BMP280;10593;48.398;10.698;2022-12-18T02:33:13;97312.25;;;2.68
20867;BMP280;10593;48.398;10.698;2022-12-18T02:35:41;97307.25;;;2.70
20867;BMP280;10593;48.398;10.698;2022-12-18T02:38:09;97309.84;;;2.71
20867;BMP280;10593;48.398;10.698;2022-12-18T02:40:36;97308.13;;;2.72
20867;BMP280;10593;48.398;10.698;2022-12-18T02:43:15;97301.41;;;2.72
20867;BMP280;10593;48.398;10.698;2022-12-18T02:45:52;97298.88;;;2.72
20867;BMP280;10593;48.398;10.698;2022-12-18T02:48:24;97299.75;;;2.74
20867;BMP280;10593;48.398;10.698;2022-12-18T02:51:11;97303.97;;;2.74
20867;BMP280;10593;48.398;10.698;2022-12-18T02:53:52;97309.00;;;2.72
20867;BMP280;10593;48.398;10.698;2022-12-18T02:56:32;97309.00;;;2.72
20867;BMP280;10593;48.398;10.698;2022-12-18T02:59:16;97301.41;;;2.72
20867;BMP280;10593;48.398;10.698;2022-12-18T03:02:18;97292.91;;;2.72
20867;BMP280;10593;48.398;10.698;2022-12-18T03:06:05;97292.91;;;2.72
20867;BMP280;10593;48.398;10.698;2022-12-18T03:08:15;97292.88;;;2.70
20867;BMP280;10593;48.398;10.698;2022-12-18T03:10:57;97308.13;;;2.70
20867;BMP280;10593;48.398;10.698;2022-12-18T03:13:32;97308.06;;;2.69
20867;BMP280;10593;48.398;10.698;2022-12-18T03:16:01;97313.13;;;2.69
20867;BMP280;10593;48.398;10.698;2022-12-18T03:18:42;97325.75;;;2.67
20867;BMP280;10593;48.398;10.698;2022-12-18T03:21:13;97326.56;;;2.66
20867;BMP280;10593;48.398;10.698;2022-12-18T03:23:49;97334.19;;;2.66
20867;BMP280;10593;48.398;10.698;2022-12-18T03:26:21;97330.81;;;2.66
20867;BMP280;10593;48.398;10.698;2022-12-18T03:28:54;97329.97;;;2.67
20867;BMP280;10593;48.398;10.698;2022-12-18T03:31:23;97321.50;;;2.66
20867;BMP280;10593;48.398;10.698;2022-12-18T03:34:04;97324.03;;;2.66
20867;BMP280;10593;48.398;10.698;2022-12-18T03:36:31;97318.06;;;2.64
20867;BMP280;10593;48.398;10.698;2022-12-18T03:38:57;97321.47;;;2.65
20867;BMP280;10593;48.398;10.698;2022-12-18T03:41:39;97334.97;;;2.64
20867;BMP280;10593;48.398;10.698;2022-12-18T03:44:29;97341.72;;;2.63
20867;BMP280;10593;48.398;10.698;2022-12-18T03:47:51;97337.44;;;2.62
20867;BMP280;10593;48.398;10.698;2022-12-18T03:53:23;97325.53;;;2.60
20867;BMP280;10593;48.398;10.698;2022-12-18T03:55:51;97317.91;;;2.60
20867;BMP280;10593;48.398;10.698;2022-12-18T03:58:24;97322.16;;;2.59
20867;BMP280;10593;48.398;10.698;2022-12-18T04:00:54;97328.94;;;2.60
20867;BMP280;10593;48.398;10.698;2022-12-18T04:03:22;97324.69;;;2.59
20867;BMP280;10593;48.398;10.698;2022-12-18T04:05:51;97327.22;;;2.59
20867;BMP280;10593;48.398;10.698;2022-12-18T04:08:18;97322.91;;;2.57
20867;BMP280;10593;48.398;10.698;2022-12-18T04:10:45;97334.69;;;2.55
20867;BMP280;10593;48.398;10.698;2022-12-18T04:13:11;97331.25;;;2.53
20867;BMP280;10593;48.398;10.698;2022-12-18T04:15:37;97334.53;;;2.50
20867;BMP280;10593;48.398;10.698;2022-12-18T04:18:03;97317.66;;;2.51
20867;BMP280;10593;48.398;10.698;2022-12-18T04:20:29;97323.44;;;2.47
20867;BMP280;10593;48.398;10.698;2022-12-18T04:22:55;97337.75;;;2.45
20867;BMP280;10593;48.398;10.698;2022-12-18T04:25:21;97325.88;;;2.42
20867;BMP280;10593;48.398;10.698;2022-12-18T04:27:46;97324.03;;;2.38
20867;BMP280;10593;48.398;10.698;2022-12-18T04:30:12;97324.75;;;2.34
20867;BMP280;10593;48.398;10.698;2022-12-18T04:32:38;97339.88;;;2.31
20867;BMP280;10593;48.398;10.698;2022-12-18T04:35:04;97341.50;;;2.29
20867;BMP280;10593;48.398;10.698;2022-12-18T04:37:34;97350.72;;;2.27
20867;BMP280;10593;48.398;10.698;2022-12-18T04:39:59;97357.47;;;2.27
20867;BMP280;10593;48.398;10.698;2022-12-18T04:42:25;97365.91;;;2.26
20867;BMP280;10593;48.398;10.698;2022-12-18T04:44:51;97365.03;;;2.25
20867;BMP280;10593;48.398;10.698;2022-12-18T04:47:16;97369.34;;;2.28
20867;BMP280;10593;48.398;10.698;2022-12-18T04:49:42;97372.63;;;2.25
20867;BMP280;10593;48.398;10.698;2022-12-18T04:52:07;97365.03;;;2.25
20867;BMP280;10593;48.398;10.698;2022-12-18T04:54:33;97360.84;;;2.27
20867;BMP280;10593;48.398;10.698;2022-12-18T04:56:59;97372.78;;;2.30
20867;BMP280;10593;48.398;10.698;2022-12-18T04:59:24;97361.81;;;2.31
20867;BMP280;10593;48.398;10.698;2022-12-18T05:01:50;97354.22;;;2.31
20867;BMP280;10593;48.398;10.698;2022-12-18T05:04:16;97355.03;;;2.30
20867;BMP280;10593;48.398;10.698;2022-12-18T05:06:41;97353.25;;;2.27
20867;BMP280;10593;48.398;10.698;2022-12-18T05:09:07;97360.81;;;2.26
20867;BMP280;10593;48.398;10.698;2022-12-18T05:11:33;97363.38;;;2.26
20867;BMP280;10593;48.398;10.698;2022-12-18T05:13:58;97358.28;;;2.26
20867;BMP280;10593;48.398;10.698;2022-12-18T05:16:24;97367.56;;;2.25
20867;BMP280;10593;48.398;10.698;2022-12-18T05:18:50;97377.69;;;2.25
20867;BMP280;10593;48.398;10.698;2022-12-18T05:21:16;97379.31;;;2.23
20867;BMP280;10593;48.398;10.698;2022-12-18T05:23:41;97385.31;;;2.25
20867;BMP280;10593;48.398;10.698;2022-12-18T05:26:07;97384.56;;;2.28
20867;BMP280;10593;48.398;10.698;2022-12-18T05:28:35;97377.03;;;2.31
20867;BMP280;10593;48.398;10.698;2022-12-18T05:31:03;97379.56;;;2.31
20867;BMP280;10593;48.398;10.698;2022-12-18T05:33:32;97372.03;;;2.32
20867;BMP280;10593;48.398;10.698;2022-12-18T05:36:00;97368.59;;;2.30
20867;BMP280;10593;48.398;10.698;2022-12-18T05:38:28;97358.44;;;2.30
20867;BMP280;10593;48.398;10.698;2022-12-18T05:40:55;97362.56;;;2.28
20867;BMP280;10593;48.398;10.698;2022-12-18T05:43:24;97366.88;;;2.29
20867;BMP280;10593;48.398;10.698;2022-12-18T05:45:52;97369.34;;;2.28
20867;BMP280;10593;48.398;10.698;2022-12-18T05:48:19;97367.66;;;2.28
20867;BMP280;10593;48.398;10.698;2022-12-18T05:50:47;97378.75;;;2.32
20867;BMP280;10593;48.398;10.698;2022-12-18T05:53:19;97377.09;;;2.32
20867;BMP280;10593;48.398;10.698;2022-12-18T05:55:46;97383.88;;;2.33
20867;BMP280;10593;48.398;10.698;2022-12-18T05:58:13;97386.38;;;2.32
20867;BMP280;10593;48.398;10.698;2022-12-18T06:00:43;97393.94;;;2.30
20867;BMP280;10593;48.398;10.698;2022-12-18T06:03:11;97393.88;;;2.29
20867;BMP280;10593;48.398;10.698;2022-12-18T06:05:40;97400.59;;;2.28
20867;BMP280;10593;48.398;10.698;2022-12-18T06:08:07;97397.16;;;2.26
20867;BMP280;10593;48.398;10.698;2022-12-18T06:10:33;97403.88;;;2.24
20867;BMP280;10593;48.398;10.698;2022-12-18T06:12:59;97404.69;;;2.23
20867;BMP280;10593;48.398;10.698;2022-12-18T06:15:24;97401.28;;;2.23
20867;BMP280;10593;48.398;10.698;2022-12-18T06:17:50;97396.22;;;2.23
20867;BMP280;10593;48.398;10.698;2022-12-18T06:20:16;97399.59;;;2.22
20867;BMP280;10593;48.398;10.698;2022-12-18T06:22:41;97402.88;;;2.19
20867;BMP280;10593;48.398;10.698;2022-12-18T06:25:08;97407.13;;;2.20
20867;BMP280;10593;48.398;10.698;2022-12-18T06:27:34;97403.78;;;2.21
20867;BMP280;10593;48.398;10.698;2022-12-18T06:30:00;97406.38;;;2.23
20867;BMP280;10593;48.398;10.698;2022-12-18T06:32:26;97403.84;;;2.23
20867;BMP280;10593;48.398;10.698;2022-12-18T06:34:52;97414.88;;;2.25
20867;BMP280;10593;48.398;10.698;2022-12-18T06:37:19;97406.41;;;2.24
20867;BMP280;10593;48.398;10.698;2022-12-18T06:39:45;97400.50;;;2.25
20867;BMP280;10593;48.398;10.698;2022-12-18T06:42:10;97400.59;;;2.28
20867;BMP280;10593;48.398;10.698;2022-12-18T06:44:36;97393.94;;;2.30
20867;BMP280;10593;48.398;10.698;2022-12-18T06:47:02;97405.00;;;2.32
20867;BMP280;10593;48.398;10.698;2022-12-18T06:49:27;97410.09;;;2.34
20867;BMP280;10593;48.398;10.698;2022-12-18T06:51:53;97414.31;;;2.33
20867;BMP280;10593;48.398;10.698;2022-12-18T06:54:19;97420.22;;;2.34
20867;BMP280;10593;48.398;10.698;2022-12-18T06:56:47;97431.25;;;2.34
20867;BMP280;10593;48.398;10.698;2022-12-18T06:59:13;97434.69;;;2.36
20867;BMP280;10593;48.398;10.698;2022-12-18T07:01:40;97433.78;;;2.34
20867;BMP280;10593;48.398;10.698;2022-12-18T07:04:07;97430.34;;;2.32
20867;BMP280;10593;48.398;10.698;2022-12-18T07:06:33;97427.72;;;2.29
20867;BMP280;10593;48.398;10.698;2022-12-18T07:08:58;97434.28;;;2.24
20867;BMP280;10593;48.398;10.698;2022-12-18T07:11:24;97428.25;;;2.21
20867;BMP280;10593;48.398;10.698;2022-12-18T07:13:50;97424.81;;;2.19
20867;BMP280;10593;48.398;10.698;2022-12-18T07:16:20;97421.34;;;2.17
20867;BMP280;10593;48.398;10.698;2022-12-18T07:18:46;97422.09;;;2.14
20867;BMP280;10593;48.398;10.698;2022-12-18T07:21:17;97431.34;;;2.12
20867;BMP280;10593;48.398;10.698;2022-12-18T07:23:43;97433.03;;;2.12
20867;BMP280;10593;48.398;10.698;2022-12-18T07:26:12;97440.56;;;2.10
20867;BMP280;10593;48.398;10.698;2022-12-18T07:28:40;97441.31;;;2.08
20867;BMP280;10593;48.398;10.698;2022-12-18T07:31:10;97445.44;;;2.04
20867;BMP280;10593;48.398;10.698;2022-12-18T07:33:36;97449.53;;;2.01
20867;BMP280;10593;48.398;10.698;2022-12-18T07:36:05;97446.94;;;1.99
20867;BMP280;10593;48.398;10.698;2022-12-18T07:38:32;97455.34;;;1.98
20867;BMP280;10593;48.398;10.698;2022-12-18T07:41:11;97457.88;;;1.98
20867;BMP280;10593;48.398;10.698;2022-12-18T07:43:38;97463.03;;;2.00
20867;BMP280;10593;48.398;10.698;2022-12-18T07:46:05;97463.88;;;2.00
20867;BMP280;10593;48.398;10.698;2022-12-18T07:48:31;97471.47;;;2.00
20867;BMP280;10593;48.398;10.698;2022-12-18T07:51:05;97479.22;;;2.03
20867;BMP280;10593;48.398;10.698;2022-12-18T07:53:33;97475.84;;;2.04
20867;BMP280;10593;48.398;10.698;2022-12-18T07:56:03;97484.47;;;2.09
20867;BMP280;10593;48.398;10.698;2022-12-18T07:58:29;97490.44;;;2.11
20867;BMP280;10593;48.398;10.698;2022-12-18T08:01:06;97493.09;;;2.14
20867;BMP280;10593;48.398;10.698;2022-12-18T08:03:33;97497.31;;;2.14
20867;BMP280;10593;48.398;10.698;2022-12-18T08:06:00;97498.13;;;2.13
20867;BMP280;10593;48.398;10.698;2022-12-18T08:08:27;97499.78;;;2.12
20867;BMP280;10593;48.398;10.698;2022-12-18T08:10:53;97489.63;;;2.12
20867;BMP280;10593;48.398;10.698;2022-12-18T08:13:19;97496.44;;;2.13
20867;BMP280;10593;48.398;10.698;2022-12-18T08:15:45;97494.88;;;2.17
20867;BMP280;10593;48.398;10.698;2022-12-18T08:18:10;97494.94;;;2.18
20867;BMP280;10593;48.398;10.698;2022-12-18T08:20:36;97488.25;;;2.20
20867;BMP280;10593;48.398;10.698;2022-12-18T08:23:01;97483.25;;;2.22
20867;BMP280;10593;48.398;10.698;2022-12-18T08:25:27;97490.88;;;2.23
20867;BMP280;10593;48.398;10.698;2022-12-18T08:27:53;97486.69;;;2.24
20867;BMP280;10593;48.398;10.698;2022-12-18T08:30:19;97483.38;;;2.26
20867;BMP280;10593;48.398;10.698;2022-12-18T08:32:45;97492.75;;;2.29
20867;BMP280;10593;48.398;10.698;2022-12-18T08:35:11;97488.66;;;2.32
20867;BMP280;10593;48.398;10.698;2022-12-18T08:37:37;97489.56;;;2.34
20867;BMP280;10593;48.398;10.698;2022-12-18T08:40:04;97488.75;;;2.35
20867;BMP280;10593;48.398;10.698;2022-12-18T08:42:29;97481.97;;;2.34
20867;BMP280;10593;48.398;10.698;2022-12-18T08:45:13;97477.69;;;2.33
20867;BMP280;10593;48.398;10.698;2022-12-18T08:47:39;97464.16;;;2.33
20867;BMP280;10593;48.398;10.698;2022-12-18T08:50:05;97469.22;;;2.33
20867;BMP280;10593;48.398;10.698;2022-12-18T08:52:32;97470.94;;;2.34
20867;BMP280;10593;48.398;10.698;2022-12-18T08:54:57;97478.53;;;2.34
20867;BMP280;10593;48.398;10.698;2022-12-18T08:57:23;97475.97;;;2.32
20867;BMP280;10593;48.398;10.698;2022-12-18T08:59:49;97481.06;;;2.32
20867;BMP280;10593;48.398;10.698;2022-12-18T09:02:14;97475.09;;;2.32
20867;BMP280;10593;48.398;10.698;2022-12-18T09:04:40;97472.66;;;2.35
20867;BMP280;10593;48.398;10.698;2022-12-18T09:07:06;97475.25;;;2.36
20867;BMP280;10593;48.398;10.698;2022-12-18T09:09:32;97479.59;;;2.39
20867;BMP280;10593;48.398;10.698;2022-12-18T09:11:58;97475.34;;;2.39
20867;BMP280;10593;48.398;10.698;2022-12-18T09:14:23;97478.69;;;2.38
20867;BMP280;10593;48.398;10.698;2022-12-18T09:16:49;97487.19;;;2.39
20867;BMP280;10593;48.398;10.698;2022-12-18T09:19:15;97481.31;;;2.40
20867;BMP280;10593;48.398;10.698;2022-12-18T09:21:40;97485.63;;;2.42
20867;BMP280;10593;48.398;10.698;2022-12-18T09:24:12;97488.94;;;2.41
20867;BMP280;10593;48.398;10.698;2022-12-18T09:26:37;97481.31;;;2.40
20867;BMP280;10593;48.398;10.698;2022-12-18T09:29:03;97477.78;;;2.36
20867;BMP280;10593;48.398;10.698;2022-12-18T09:31:29;97470.94;;;2.34
20867;BMP280;10593;48.398;10.698;2022-12-18T09:33:56;97472.66;;;2.35
20867;BMP280;10593;48.398;10.698;2022-12-18T09:36:22;97471.88;;;2.36
20867;BMP280;10593;48.398;10.698;2022-12-18T09:38:47;97472.81;;;2.39
20867;BMP280;10593;48.398;10.698;2022-12-18T09:44:36;97470.41;;;2.42
20867;BMP280;10593;48.398;10.698;2022-12-18T09:47:29;97478.84;;;2.43
20867;BMP280;10593;48.398;10.698;2022-12-18T09:50:04;97471.19;;;2.41
20867;BMP280;10593;48.398;10.698;2022-12-18T09:52:43;97463.66;;;2.43
20867;BMP280;10593;48.398;10.698;2022-12-18T09:55:43;97466.25;;;2.44
20867;BMP280;10593;48.398;10.698;2022-12-18T09:58:20;97468.88;;;2.47
20867;BMP280;10593;48.398;10.698;2022-12-18T10:00:52;97460.44;;;2.48
20867;BMP280;10593;48.398;10.698;2022-12-18T10:03:19;97458.00;;;2.51
20867;BMP280;10593;48.398;10.698;2022-12-18T10:09:11;97452.91;;;2.50
20867;BMP280;10593;48.398;10.698;2022-12-18T10:18:26;97459.63;;;2.49
20867;BMP280;10593;48.398;10.698;2022-12-18T10:21:04;97455.44;;;2.50
20867;BMP280;10593;48.398;10.698;2022-12-18T10:23:42;97440.22;;;2.50
20867;BMP280;10593;48.398;10.698;2022-12-18T10:26:10;97443.59;;;2.50
20867;BMP280;10593;48.398;10.698;2022-12-18T10:28:40;97450.38;;;2.50
20867;BMP280;10593;48.398;10.698;2022-12-18T10:31:14;97458.00;;;2.51
20867;BMP280;10593;48.398;10.698;2022-12-18T10:33:41;97469.06;;;2.53
20867;BMP280;10593;48.398;10.698;2022-12-18T10:36:07;97476.66;;;2.53
20867;BMP280;10593;48.398;10.698;2022-12-18T10:38:33;97475.84;;;2.54
20867;BMP280;10593;48.398;10.698;2022-12-18T10:43:44;97477.69;;;2.58
20867;BMP280;10593;48.398;10.698;2022-12-18T10:51:36;97473.63;;;2.63
20867;BMP280;10593;48.398;10.698;2022-12-18T10:54:17;97466.06;;;2.65
20867;BMP280;10593;48.398;10.698;2022-12-18T10:56:43;97466.09;;;2.66
20867;BMP280;10593;48.398;10.698;2022-12-18T10:59:13;97467.94;;;2.70
20867;BMP280;10593;48.398;10.698;2022-12-18T11:01:57;97463.81;;;2.74
20867;BMP280;10593;48.398;10.698;2022-12-18T11:04:29;97453.72;;;2.75
20867;BMP280;10593;48.398;10.698;2022-12-18T11:07:04;97465.66;;;2.78
20867;BMP280;10593;48.398;10.698;2022-12-18T11:09:36;97468.22;;;2.79
20867;BMP280;10593;48.398;10.698;2022-12-18T11:12:24;97465.75;;;2.81
20867;BMP280;10593;48.398;10.698;2022-12-18T11:14:52;97465.78;;;2.82
20867;BMP280;10593;48.398;10.698;2022-12-18T11:17:29;97466.69;;;2.84
20867;BMP280;10593;48.398;10.698;2022-12-18T11:20:01;97455.72;;;2.85
20867;BMP280;10593;48.398;10.698;2022-12-18T11:22:29;97447.31;;;2.88
20867;BMP280;10593;48.398;10.698;2022-12-18T11:24:59;97460.09;;;2.89
20867;BMP280;10593;48.398;10.698;2022-12-18T11:27:26;97466.06;;;2.91
20867;BMP280;10593;48.398;10.698;2022-12-18T11:30:10;97448.34;;;2.93
20867;BMP280;10593;48.398;10.698;2022-12-18T11:33:09;97451.84;;;2.96
20867;BMP280;10593;48.398;10.698;2022-12-18T11:35:50;97450.22;;;2.98
20867;BMP280;10593;48.398;10.698;2022-12-18T11:38:32;97451.06;;;2.99
20867;BMP280;10593;48.398;10.698;2022-12-18T11:43:59;97449.50;;;3.02
20867;BMP280;10593;48.398;10.698;2022-12-18T11:46:35;97450.38;;;3.04
20867;BMP280;10593;48.398;10.698;2022-12-18T11:49:15;97445.41;;;3.07
20867;BMP280;10593;48.398;10.698;2022-12-18T11:52:21;97432.75;;;3.09
20867;BMP280;10593;48.398;10.698;2022-12-18T11:54:50;97434.47;;;3.10
20867;BMP280;10593;48.398;10.698;2022-12-18T12:00:19;97425.28;;;3.13
20867;BMP280;10593;48.398;10.698;2022-12-18T12:09:01;97421.16;;;3.17
20867;BMP280;10593;48.398;10.698;2022-12-18T12:11:42;97421.94;;;3.14
20867;BMP280;10593;48.398;10.698;2022-12-18T12:14:28;97423.72;;;3.17
20867;BMP280;10593;48.398;10.698;2022-12-18T12:17:24;97426.28;;;3.18
20867;BMP280;10593;48.398;10.698;2022-12-18T12:23:29;97430.59;;;3.22
20867;BMP280;10593;48.398;10.698;2022-12-18T12:26:11;97433.13;;;3.21
20867;BMP280;10593;48.398;10.698;2022-12-18T12:28:58;97429.78;;;3.22
20867;BMP280;10593;48.398;10.698;2022-12-18T12:35:19;97417.00;;;3.20
20867;BMP280;10593;48.398;10.698;2022-12-18T12:38:16;97406.00;;;3.20
20867;BMP280;10593;48.398;10.698;2022-12-18T12:40:57;97397.53;;;3.19
20867;BMP280;10593;48.398;10.698;2022-12-18T12:43:43;97401.78;;;3.20
20867;BMP280;10593;48.398;10.698;2022-12-18T12:46:13;97390.81;;;3.21
20867;BMP280;10593;48.398;10.698;2022-12-18T12:48:55;97385.72;;;3.21
20867;BMP280;10593;48.398;10.698;2022-12-18T12:51:32;97389.97;;;3.22
20867;BMP280;10593;48.398;10.698;2022-12-18T12:54:03;97396.00;;;3.24
20867;BMP280;10593;48.398;10.698;2022-12-18T12:56:46;97384.16;;;3.25
20867;BMP280;10593;48.398;10.698;2022-12-18T12:59:25;97382.41;;;3.24
20867;BMP280;10593;48.398;10.698;2022-12-18T13:02:22;97383.19;;;3.21
20867;BMP280;10593;48.398;10.698;2022-12-18T13:05:24;97377.22;;;3.19
20867;BMP280;10593;48.398;10.698;2022-12-18T13:08:24;97384.81;;;3.18
20867;BMP280;10593;48.398;10.698;2022-12-18T13:10:52;97386.47;;;3.17
20867;BMP280;10593;48.398;10.698;2022-12-18T13:13:55;97390.72;;;3.18
20867;BMP280;10593;48.398;10.698;2022-12-18T13:16:24;97393.34;;;3.21
20867;BMP280;10593;48.398;10.698;2022-12-18T13:18:53;97397.59;;;3.22
20867;BMP280;10593;48.398;10.698;2022-12-18T13:21:29;97401.91;;;3.23
20867;BMP280;10593;48.398;10.698;2022-12-18T13:23:56;97401.06;;;3.24
20867;BMP280;10593;48.398;10.698;2022-12-18T13:26:34;97387.56;;;3.25
20867;BMP280;10593;48.398;10.698;2022-12-18T13:29:00;97391.84;;;3.28
20867;BMP280;10593;48.398;10.698;2022-12-18T13:34:18;97403.78;;;3.30
20867;BMP280;10593;48.398;10.698;2022-12-18T13:36:44;97397.88;;;3.31
20867;BMP280;10593;48.398;10.698;2022-12-18T13:41:45;97417.44;;;3.35
20867;BMP280;10593;48.398;10.698;2022-12-18T13:44:35;97410.75;;;3.37
20867;BMP280;10593;48.398;10.698;2022-12-18T13:47:04;97407.41;;;3.38
20867;BMP280;10593;48.398;10.698;2022-12-18T13:49:43;97400.69;;;3.40
20867;BMP280;10593;48.398;10.698;2022-12-18T13:52:22;97404.03;;;3.39
20867;BMP280;10593;48.398;10.698;2022-12-18T13:54:56;97404.88;;;3.38
20867;BMP280;10593;48.398;10.698;2022-12-18T14:02:45;97400.59;;;3.37
20867;BMP280;10593;48.398;10.698;2022-12-18T14:05:44;97399.72;;;3.37
20867;BMP280;10593;48.398;10.698;2022-12-18T14:08:14;97397.25;;;3.38
20867;BMP280;10593;48.398;10.698;2022-12-18T14:10:49;97391.34;;;3.39
20867;BMP280;10593;48.398;10.698;2022-12-18T14:13:31;97390.53;;;3.40
20867;BMP280;10593;48.398;10.698;2022-12-18T14:16:00;97392.19;;;3.40
20867;BMP280;10593;48.398;10.698;2022-12-18T14:21:01;97393.97;;;3.42
20867;BMP280;10593;48.398;10.698;2022-12-18T14:23:36;97391.38;;;3.41
20867;BMP280;10593;48.398;10.698;2022-12-18T14:26:27;97399.88;;;3.41
20867;BMP280;10593;48.398;10.698;2022-12-18T14:28:56;97397.31;;;3.41
20867;BMP280;10593;48.398;10.698;2022-12-18T14:31:28;97396.50;;;3.42
20867;BMP280;10593;48.398;10.698;2022-12-18T14:33:54;97403.25;;;3.42
20867;BMP280;10593;48.398;10.698;2022-12-18T14:36:24;97403.31;;;3.43
20867;BMP280;10593;48.398;10.698;2022-12-18T14:38:57;97405.84;;;3.43
20867;BMP280;10593;48.398;10.698;2022-12-18T14:41:25;97410.09;;;3.44
20867;BMP280;10593;48.398;10.698;2022-12-18T14:43:53;97406.72;;;3.44
20867;BMP280;10593;48.398;10.698;2022-12-18T14:46:38;97411.81;;;3.44
20867;BMP280;10593;48.398;10.698;2022-12-18T14:49:24;97406.59;;;3.41
20867;BMP280;10593;48.398;10.698;2022-12-18T14:51:57;97405.72;;;3.39
20867;BMP280;10593;48.398;10.698;2022-12-18T14:54:26;97398.06;;;3.37
20867;BMP280;10593;48.398;10.698;2022-12-18T14:57:27;97410.66;;;3.34
20867;BMP280;10593;48.398;10.698;2022-12-18T15:00:14;97413.09;;;3.30
20867;BMP280;10593;48.398;10.698;2022-12-18T15:02:40;97406.22;;;3.27
20867;BMP280;10593;48.398;10.698;2022-12-18T15:05:28;97412.94;;;3.25
20867;BMP280;10593;48.398;10.698;2022-12-18T15:07:57;97413.78;;;3.24
20867;BMP280;10593;48.398;10.698;2022-12-18T15:10:30;97408.63;;;3.23
20867;BMP280;10593;48.398;10.698;2022-12-18T15:18:15;97407.59;;;3.16
20867;BMP280;10593;48.398;10.698;2022-12-18T15:20:53;97402.47;;;3.15
20867;BMP280;10593;48.398;10.698;2022-12-18T15:23:35;97406.63;;;3.13
20867;BMP280;10593;48.398;10.698;2022-12-18T15:26:07;97406.63;;;3.11
20867;BMP280;10593;48.398;10.698;2022-12-18T15:28:44;97399.84;;;3.12
20867;BMP280;10593;48.398;10.698;2022-12-18T15:36:22;97400.75;;;3.14
20867;BMP280;10593;48.398;10.698;2022-12-18T15:38:50;97405.81;;;3.14
20867;BMP280;10593;48.398;10.698;2022-12-18T15:41:19;97402.47;;;3.15
20867;BMP280;10593;48.398;10.698;2022-12-18T15:43:47;97399.94;;;3.15
20867;BMP280;10593;48.398;10.698;2022-12-18T15:46:23;97397.44;;;3.16
20867;BMP280;10593;48.398;10.698;2022-12-18T15:48:52;97400.78;;;3.15
20867;BMP280;10593;48.398;10.698;2022-12-18T15:51:28;97405.13;;;3.18
20867;BMP280;10593;48.398;10.698;2022-12-18T15:53:59;97405.13;;;3.18